createdAt,value
2022-11-29T00:00:20.651Z,179.70
2022-11-29T00:01:20.622Z,174.40
2022-11-29T00:02:20.755Z,171.50
2022-11-29T00:03:20.788Z,173.40
2022-11-29T00:04:20.565Z,171.70
2022-11-29T00:05:20.590Z,164.50
2022-11-29T00:06:20.562Z,188.20
2022-11-29T00:07:20.654Z,171.90
2022-11-29T00:08:20.530Z,176.30
2022-11-29T00:09:20.529Z,177.90
2022-11-29T00:10:20.513Z,159.10
2022-11-29T00:11:20.537Z,168.30
2022-11-29T00:12:20.482Z,182.20
2022-11-29T00:13:20.508Z,178.00
2022-11-29T00:14:20.469Z,170.70
2022-11-29T00:15:20.473Z,171.00
2022-11-29T00:16:20.486Z,167.80
2022-11-29T00:17:20.470Z,176.90
2022-11-29T00:18:20.419Z,164.80
2022-11-29T00:19:20.428Z,177.80
2022-11-29T00:20:20.395Z,165.40
2022-11-29T00:21:20.407Z,175.00
2022-11-29T00:22:20.395Z,174.00
2022-11-29T00:23:20.404Z,151.50
2022-11-29T00:24:20.365Z,184.50
2022-11-29T00:25:20.368Z,165.10
2022-11-29T00:26:20.334Z,153.00
2022-11-29T00:27:20.362Z,177.90
2022-11-29T00:28:20.322Z,172.40
2022-11-29T00:29:20.328Z,180.20
2022-11-29T00:30:20.292Z,170.90
2022-11-29T00:31:20.299Z,163.00
2022-11-29T00:32:20.272Z,180.50
2022-11-29T00:33:20.302Z,184.60
2022-11-29T00:34:20.266Z,177.70
2022-11-29T00:35:20.267Z,170.60
2022-11-29T00:36:20.224Z,179.00
2022-11-29T00:37:20.250Z,189.50
2022-11-29T00:38:20.236Z,167.90
2022-11-29T00:39:20.237Z,183.00
2022-11-29T00:40:20.186Z,190.20
2022-11-29T00:41:20.200Z,167.20
2022-11-29T00:42:20.165Z,178.60
2022-11-29T00:43:20.185Z,174.80
2022-11-29T00:44:20.835Z,172.20
2022-11-29T00:45:20.153Z,179.60
2022-11-29T00:46:20.224Z,154.50
2022-11-29T00:47:20.180Z,169.00
2022-11-29T00:48:20.104Z,177.20
2022-11-29T00:49:20.131Z,167.90
2022-11-29T00:50:20.099Z,184.20
2022-11-29T00:51:20.100Z,181.80
2022-11-29T00:52:20.061Z,166.50
2022-11-29T00:53:20.097Z,178.90
2022-11-29T00:54:20.051Z,171.60
2022-11-29T00:55:20.100Z,174.60
2022-11-29T00:56:20.025Z,173.60
2022-11-29T00:57:20.038Z,173.50
2022-11-29T00:58:20.017Z,190.10
2022-11-29T00:59:20.012Z,182.50
2022-11-29T01:00:19.977Z,175.50
2022-11-29T01:01:20.062Z,201.70
2022-11-29T01:02:19.975Z,192.70
2022-11-29T01:03:19.968Z,197.10
2022-11-29T01:04:19.940Z,174.90
2022-11-29T01:05:19.943Z,212.70
2022-11-29T01:06:19.936Z,204.70
2022-11-29T01:07:19.970Z,221.40
2022-11-29T01:08:19.894Z,221.20
2022-11-29T01:09:19.904Z,217.40
2022-11-29T01:10:19.878Z,198.90
2022-11-29T01:11:19.886Z,211.20
2022-11-29T01:12:19.858Z,215.90
2022-11-29T01:13:19.860Z,201.90
2022-11-29T01:14:19.824Z,213.60
2022-11-29T01:15:19.837Z,226.50
2022-11-29T01:16:19.858Z,198.00
2022-11-29T01:17:19.835Z,225.10
2022-11-29T01:18:19.799Z,228.90
2022-11-29T01:19:19.796Z,197.30
2022-11-29T01:20:19.764Z,197.70
2022-11-29T01:21:19.795Z,215.20
2022-11-29T01:22:19.742Z,254.60
2022-11-29T01:23:19.781Z,188.90
2022-11-29T01:24:19.718Z,224.70
2022-11-29T01:25:19.738Z,261.10
2022-11-29T01:26:19.709Z,236.80
2022-11-29T01:27:19.719Z,223.00
2022-11-29T01:28:19.716Z,263.30
2022-11-29T01:29:19.691Z,229.40
2022-11-29T01:30:19.659Z,251.60
2022-11-29T01:31:19.674Z,250.20
2022-11-29T01:32:19.634Z,276.20
2022-11-29T01:33:19.672Z,264.90
2022-11-29T01:34:19.628Z,263.20
2022-11-29T01:35:19.624Z,243.80
2022-11-29T01:36:19.647Z,257.20
2022-11-29T01:37:19.606Z,267.50
2022-11-29T01:38:19.597Z,297.90
2022-11-29T01:39:19.603Z,259.90
2022-11-29T01:40:19.549Z,254.60
2022-11-29T01:41:19.564Z,248.20
2022-11-29T01:42:19.531Z,263.60
2022-11-29T01:43:19.548Z,262.80
2022-11-29T01:44:19.508Z,254.00
2022-11-29T01:45:19.544Z,260.70
2022-11-29T01:46:19.506Z,271.80
2022-11-29T01:47:19.501Z,247.10
2022-11-29T01:48:19.465Z,261.50
2022-11-29T01:49:19.483Z,247.20
2022-11-29T01:50:19.455Z,259.70
2022-11-29T01:51:19.487Z,273.80
2022-11-29T01:52:19.425Z,256.70
2022-11-29T01:53:19.440Z,262.90
2022-11-29T01:54:19.405Z,250.20
2022-11-29T01:55:19.428Z,270.40
2022-11-29T01:56:19.386Z,262.80
2022-11-29T01:57:19.413Z,276.00
2022-11-29T01:58:19.367Z,286.80
2022-11-29T01:59:19.375Z,275.50
2022-11-29T02:00:19.345Z,266.50
2022-11-29T02:01:19.423Z,263.10
2022-11-29T02:02:19.353Z,278.30
2022-11-29T02:03:19.438Z,247.60
2022-11-29T02:04:19.302Z,261.50
2022-11-29T02:05:19.310Z,276.70
2022-11-29T02:06:19.280Z,278.10
2022-11-29T02:07:19.339Z,263.90
2022-11-29T02:08:19.261Z,239.70
2022-11-29T02:09:19.300Z,249.30
2022-11-29T02:10:19.238Z,256.70
2022-11-29T02:11:19.262Z,261.40
2022-11-29T02:12:19.230Z,247.50
2022-11-29T02:13:19.233Z,251.20
2022-11-29T02:14:19.195Z,249.30
2022-11-29T02:15:19.228Z,248.80
2022-11-29T02:16:19.247Z,246.10
2022-11-29T02:17:19.191Z,270.00
2022-11-29T02:18:19.171Z,267.70
2022-11-29T02:19:19.169Z,259.40
2022-11-29T02:20:19.142Z,250.10
2022-11-29T02:21:19.179Z,260.60
2022-11-29T02:22:19.110Z,244.60
2022-11-29T02:23:19.135Z,244.90
2022-11-29T02:24:19.101Z,247.20
2022-11-29T02:25:19.103Z,240.90
2022-11-29T02:26:19.070Z,236.80
2022-11-29T02:27:19.099Z,249.00
2022-11-29T02:28:19.050Z,232.20
2022-11-29T02:29:19.067Z,267.00
2022-11-29T02:30:19.031Z,279.10
2022-11-29T02:31:19.058Z,281.20
2022-11-29T02:32:19.005Z,263.50
2022-11-29T02:33:19.043Z,266.80
2022-11-29T02:34:18.985Z,293.00
2022-11-29T02:35:18.995Z,267.10
2022-11-29T02:36:18.965Z,273.90
2022-11-29T02:37:18.973Z,265.30
2022-11-29T02:38:18.949Z,272.30
2022-11-29T02:39:18.978Z,256.60
2022-11-29T02:40:18.921Z,259.60
2022-11-29T02:41:18.931Z,261.50
2022-11-29T02:42:18.901Z,248.20
2022-11-29T02:43:18.917Z,258.00
2022-11-29T02:44:18.899Z,262.00
2022-11-29T02:45:18.893Z,247.90
2022-11-29T02:46:18.915Z,240.10
2022-11-29T02:47:18.852Z,261.70
2022-11-29T02:48:18.869Z,261.70
2022-11-29T02:49:18.833Z,263.60
2022-11-29T02:50:18.842Z,267.40
2022-11-29T02:51:18.816Z,268.40
2022-11-29T02:52:18.823Z,278.70
2022-11-29T02:53:18.798Z,272.90
2022-11-29T02:54:18.810Z,269.00
2022-11-29T02:55:18.765Z,277.60
2022-11-29T02:56:18.775Z,282.90
2022-11-29T02:57:18.764Z,259.90
2022-11-29T02:58:18.760Z,274.80
2022-11-29T02:59:18.715Z,253.50
2022-11-29T03:00:18.734Z,259.10
2022-11-29T03:01:18.857Z,261.60
2022-11-29T03:02:18.720Z,257.00
2022-11-29T03:03:18.692Z,258.30
2022-11-29T03:04:18.686Z,250.50
2022-11-29T03:05:18.660Z,239.80
2022-11-29T03:06:18.668Z,259.40
2022-11-29T03:07:18.674Z,269.10
2022-11-29T03:08:18.647Z,267.10
2022-11-29T03:09:18.655Z,271.90
2022-11-29T03:10:18.627Z,276.90
2022-11-29T03:11:18.593Z,283.70
2022-11-29T03:12:18.602Z,262.40
2022-11-29T03:13:18.575Z,281.30
2022-11-29T03:14:18.582Z,272.40
2022-11-29T03:15:18.571Z,255.30
2022-11-29T03:16:18.563Z,273.00
2022-11-29T03:17:18.555Z,270.80
2022-11-29T03:18:18.544Z,273.90
2022-11-29T03:19:18.523Z,270.10
2022-11-29T03:20:18.535Z,269.00
2022-11-29T03:21:18.514Z,269.60
2022-11-29T03:22:18.506Z,271.70
2022-11-29T03:23:18.490Z,264.20
2022-11-29T03:24:18.475Z,286.00
2022-11-29T03:25:18.478Z,283.00
2022-11-29T03:26:18.462Z,277.40
2022-11-29T03:27:18.464Z,253.80
2022-11-29T03:28:18.434Z,270.50
2022-11-29T03:29:18.400Z,255.10
2022-11-29T03:30:18.411Z,257.50
2022-11-29T03:31:18.415Z,296.40
2022-11-29T03:32:18.398Z,268.60
2022-11-29T03:33:18.393Z,277.00
2022-11-29T03:34:18.385Z,292.50
2022-11-29T03:35:18.343Z,276.40
2022-11-29T03:36:18.360Z,277.90
2022-11-29T03:37:18.316Z,274.00
2022-11-29T03:38:18.331Z,277.30
2022-11-29T03:39:18.320Z,272.50
2022-11-29T03:40:18.315Z,282.50
2022-11-29T03:41:18.280Z,277.50
2022-11-29T03:42:18.286Z,288.50
2022-11-29T03:43:18.260Z,306.00
2022-11-29T03:44:18.270Z,281.20
2022-11-29T03:45:18.257Z,273.20
2022-11-29T03:46:18.288Z,300.90
2022-11-29T03:47:18.212Z,259.90
2022-11-29T03:48:18.230Z,271.20
2022-11-29T03:49:18.191Z,279.80
2022-11-29T03:50:18.198Z,286.70
2022-11-29T03:51:18.195Z,278.00
2022-11-29T03:52:18.182Z,275.90
2022-11-29T03:53:18.149Z,305.20
2022-11-29T03:54:18.156Z,290.50
2022-11-29T03:55:18.147Z,301.20
2022-11-29T03:56:18.137Z,291.30
2022-11-29T03:57:18.132Z,300.30
2022-11-29T03:58:18.119Z,312.60
2022-11-29T03:59:18.081Z,306.50
2022-11-29T04:00:18.096Z,286.00
2022-11-29T04:01:18.122Z,281.40
2022-11-29T04:02:18.101Z,297.50
2022-11-29T04:03:18.071Z,296.20
2022-11-29T04:04:18.059Z,282.10
2022-11-29T04:05:18.033Z,303.10
2022-11-29T04:06:18.033Z,295.80
2022-11-29T04:07:18.077Z,304.50
2022-11-29T04:08:18.016Z,314.70
2022-11-29T04:09:17.994Z,306.60
2022-11-29T04:10:17.990Z,330.20
2022-11-29T04:11:17.962Z,335.40
2022-11-29T04:12:17.971Z,337.80
2022-11-29T04:13:17.934Z,343.90
2022-11-29T04:14:17.948Z,320.30
2022-11-29T04:15:17.949Z,328.70
2022-11-29T04:16:17.960Z,329.00
2022-11-29T04:17:17.894Z,323.00
2022-11-29T04:18:17.907Z,315.40
2022-11-29T04:19:17.879Z,321.00
2022-11-29T04:20:17.887Z,365.40
2022-11-29T04:21:17.868Z,341.30
2022-11-29T04:22:17.869Z,398.50
2022-11-29T04:23:17.829Z,324.30
2022-11-29T04:24:17.840Z,350.50
2022-11-29T04:25:17.818Z,338.30
2022-11-29T04:26:17.834Z,377.00
2022-11-29T04:27:17.818Z,330.90
2022-11-29T04:28:17.811Z,337.50
2022-11-29T04:29:17.770Z,376.40
2022-11-29T04:30:17.797Z,377.60
2022-11-29T04:31:17.806Z,391.50
2022-11-29T04:32:17.756Z,356.80
2022-11-29T04:33:17.744Z,353.40
2022-11-29T04:34:17.751Z,350.50
2022-11-29T04:35:17.720Z,353.30
2022-11-29T04:36:17.721Z,338.30
2022-11-29T04:37:17.689Z,334.40
2022-11-29T04:38:17.691Z,347.30
2022-11-29T04:39:17.697Z,310.80
2022-11-29T04:40:17.674Z,333.10
2022-11-29T04:41:17.645Z,352.70
2022-11-29T04:42:17.656Z,389.90
2022-11-29T04:43:17.618Z,358.90
2022-11-29T04:44:17.630Z,370.00
2022-11-29T04:45:17.619Z,330.80
2022-11-29T04:46:17.654Z,346.60
2022-11-29T04:47:17.578Z,334.10
2022-11-29T04:48:17.589Z,322.90
2022-11-29T04:49:17.557Z,346.70
2022-11-29T04:50:17.572Z,320.90
2022-11-29T04:51:17.569Z,299.70
2022-11-29T04:52:17.544Z,312.90
2022-11-29T04:53:17.515Z,322.10
2022-11-29T04:54:17.533Z,318.20
2022-11-29T04:55:24.988Z,332.80
2022-11-29T04:56:17.508Z,310.40
2022-11-29T04:57:17.556Z,311.10
2022-11-29T04:58:17.487Z,322.00
2022-11-29T04:59:17.454Z,325.80
2022-11-29T05:00:17.471Z,306.70
2022-11-29T05:01:17.501Z,288.80
2022-11-29T05:02:17.503Z,306.00
2022-11-29T05:03:17.451Z,283.90
2022-11-29T05:04:17.424Z,264.70
2022-11-29T05:05:17.398Z,277.80
2022-11-29T05:06:17.412Z,264.30
2022-11-29T05:07:17.412Z,279.10
2022-11-29T05:08:17.391Z,280.80
2022-11-29T05:09:17.429Z,282.70
2022-11-29T05:10:17.354Z,287.30
2022-11-29T05:11:20.801Z,281.70
2022-11-29T05:12:17.340Z,274.80
2022-11-29T05:13:17.308Z,290.50
2022-11-29T05:14:17.317Z,284.90
2022-11-29T05:15:17.296Z,305.50
2022-11-29T05:16:17.358Z,308.30
2022-11-29T05:17:17.267Z,273.10
2022-11-29T05:18:17.274Z,309.10
2022-11-29T05:19:17.236Z,298.30
2022-11-29T05:20:17.264Z,288.80
2022-11-29T05:21:17.251Z,287.70
2022-11-29T05:22:17.232Z,303.30
2022-11-29T05:23:17.197Z,286.80
2022-11-29T05:24:17.206Z,295.10
2022-11-29T05:25:17.177Z,311.60
2022-11-29T05:26:17.207Z,285.60
2022-11-29T05:27:17.178Z,305.80
2022-11-29T05:28:17.165Z,297.30
2022-11-29T05:29:17.129Z,323.70
2022-11-29T05:30:17.154Z,280.00
2022-11-29T05:31:17.157Z,269.20
2022-11-29T05:32:17.121Z,287.00
2022-11-29T05:33:17.103Z,277.20
2022-11-29T05:34:17.105Z,287.50
2022-11-29T05:35:17.072Z,279.60
2022-11-29T05:36:17.077Z,282.90
2022-11-29T05:37:17.043Z,285.90
2022-11-29T05:38:17.061Z,275.10
2022-11-29T05:39:17.081Z,295.80
2022-11-29T05:40:17.056Z,302.60
2022-11-29T05:41:17.026Z,308.80
2022-11-29T05:42:17.021Z,312.70
2022-11-29T05:43:16.986Z,319.60
2022-11-29T05:44:16.996Z,302.30
2022-11-29T05:45:16.985Z,280.60
2022-11-29T05:46:17.039Z,284.80
2022-11-29T05:47:16.939Z,277.70
2022-11-29T05:48:16.949Z,275.30
2022-11-29T05:49:16.923Z,255.90
2022-11-29T05:50:16.932Z,255.70
2022-11-29T05:51:16.922Z,276.60
2022-11-29T05:52:16.916Z,277.90
2022-11-29T05:53:16.876Z,273.80
2022-11-29T05:54:16.888Z,290.70
2022-11-29T05:55:16.854Z,269.40
2022-11-29T05:56:16.872Z,267.90
2022-11-29T05:57:16.846Z,247.20
2022-11-29T05:58:16.847Z,265.50
2022-11-29T05:59:16.817Z,251.70
2022-11-29T06:00:16.827Z,263.10
2022-11-29T06:01:16.790Z,267.00
2022-11-29T06:02:16.849Z,295.20
2022-11-29T06:03:16.836Z,253.70
2022-11-29T06:04:16.782Z,254.80
2022-11-29T06:05:16.749Z,268.30
2022-11-29T06:06:16.761Z,266.80
2022-11-29T06:07:16.788Z,272.80
2022-11-29T06:08:16.748Z,248.60
2022-11-29T06:09:16.723Z,264.90
2022-11-29T06:10:16.716Z,256.90
2022-11-29T06:11:16.692Z,282.40
2022-11-29T06:12:20.773Z,274.70
2022-11-29T06:13:16.664Z,271.90
2022-11-29T06:14:16.676Z,256.60
2022-11-29T06:15:16.669Z,261.80
2022-11-29T06:16:16.716Z,283.10
2022-11-29T06:17:16.618Z,259.50
2022-11-29T06:18:16.633Z,290.10
2022-11-29T06:19:16.599Z,254.60
2022-11-29T06:20:16.610Z,248.20
2022-11-29T06:21:16.598Z,263.40
2022-11-29T06:22:16.589Z,272.20
2022-11-29T06:23:16.571Z,252.00
2022-11-29T06:24:19.425Z,252.00
2022-11-29T06:25:16.542Z,262.30
2022-11-29T06:26:16.553Z,236.70
2022-11-29T06:27:16.550Z,240.90
2022-11-29T06:28:16.559Z,242.30
2022-11-29T06:29:16.508Z,257.70
2022-11-29T06:30:16.513Z,243.40
2022-11-29T06:31:16.526Z,234.20
2022-11-29T06:32:16.501Z,236.60
2022-11-29T06:33:16.476Z,232.70
2022-11-29T06:34:16.471Z,231.40
2022-11-29T06:35:16.437Z,239.60
2022-11-29T06:36:16.446Z,242.80
2022-11-29T06:37:16.432Z,249.50
2022-11-29T06:38:16.436Z,248.30
2022-11-29T06:39:16.487Z,237.00
2022-11-29T06:40:16.419Z,245.80
2022-11-29T06:41:16.379Z,236.70
2022-11-29T06:42:16.396Z,236.50
2022-11-29T06:43:16.358Z,261.00
2022-11-29T06:44:16.369Z,250.50
2022-11-29T06:45:16.364Z,250.70
2022-11-29T06:46:16.432Z,250.80
2022-11-29T06:47:16.309Z,248.00
2022-11-29T06:48:16.331Z,244.10
2022-11-29T06:49:16.306Z,254.40
2022-11-29T06:50:16.300Z,247.80
2022-11-29T06:51:16.282Z,243.40
2022-11-29T06:52:16.286Z,249.00
2022-11-29T06:53:16.245Z,239.50
2022-11-29T06:54:16.260Z,242.50
2022-11-29T06:55:16.222Z,240.50
2022-11-29T06:56:16.240Z,241.00
2022-11-29T06:57:16.232Z,252.20
2022-11-29T06:58:16.217Z,238.10
2022-11-29T06:59:16.186Z,243.40
2022-11-29T07:00:16.171Z,263.50
2022-11-29T07:01:16.224Z,254.40
2022-11-29T07:02:16.195Z,247.70
2022-11-29T07:03:16.183Z,257.60
2022-11-29T07:04:16.138Z,253.80
2022-11-29T07:05:16.145Z,260.90
2022-11-29T07:06:16.127Z,246.60
2022-11-29T07:07:16.179Z,261.60
2022-11-29T07:08:16.119Z,271.70
2022-11-29T07:09:16.127Z,263.20
2022-11-29T07:10:16.069Z,274.90
2022-11-29T07:11:16.075Z,261.50
2022-11-29T07:12:16.042Z,258.20
2022-11-29T07:13:16.061Z,264.10
2022-11-29T07:14:16.031Z,262.50
2022-11-29T07:15:16.057Z,279.80
2022-11-29T07:16:16.077Z,273.60
2022-11-29T07:17:16.015Z,277.60
2022-11-29T07:18:15.989Z,258.80
2022-11-29T07:19:16.000Z,262.60
2022-11-29T07:20:15.961Z,262.90
2022-11-29T07:21:16.004Z,265.40
2022-11-29T07:22:15.942Z,291.00
2022-11-29T07:23:15.953Z,280.70
2022-11-29T07:24:15.917Z,282.50
2022-11-29T07:25:15.941Z,272.70
2022-11-29T07:26:15.914Z,263.60
2022-11-29T07:27:15.929Z,270.90
2022-11-29T07:28:15.874Z,258.30
2022-11-29T07:29:15.887Z,250.00
2022-11-29T07:30:15.880Z,257.80
2022-11-29T07:31:15.880Z,250.00
2022-11-29T07:32:15.858Z,252.50
2022-11-29T07:33:15.858Z,242.00
2022-11-29T07:34:15.817Z,265.50
2022-11-29T07:35:15.825Z,256.50
2022-11-29T07:36:15.803Z,266.60
2022-11-29T07:37:15.820Z,251.20
2022-11-29T07:38:15.802Z,266.60
2022-11-29T07:39:15.803Z,247.80
2022-11-29T07:40:15.754Z,245.10
2022-11-29T07:41:15.761Z,246.80
2022-11-29T07:42:15.731Z,269.90
2022-11-29T07:43:15.750Z,254.70
2022-11-29T07:44:15.739Z,244.60
2022-11-29T07:45:15.721Z,225.90
2022-11-29T07:46:15.760Z,233.70
2022-11-29T07:47:15.704Z,236.40
2022-11-29T07:48:15.687Z,235.40
2022-11-29T07:49:15.690Z,231.40
2022-11-29T07:50:15.692Z,224.50
2022-11-29T07:51:15.669Z,232.90
2022-11-29T07:52:15.630Z,224.30
2022-11-29T07:53:15.644Z,240.20
2022-11-29T07:54:15.604Z,241.40
2022-11-29T07:55:18.695Z,229.00
2022-11-29T07:56:15.611Z,247.30
2022-11-29T07:57:15.598Z,247.20
2022-11-29T07:58:15.570Z,232.50
2022-11-29T07:59:15.585Z,229.60
2022-11-29T08:00:15.541Z,249.90
2022-11-29T08:01:15.661Z,251.20
2022-11-29T08:02:15.568Z,231.70
2022-11-29T08:03:15.528Z,243.50
2022-11-29T08:04:15.505Z,247.40
2022-11-29T08:05:15.518Z,251.10
2022-11-29T08:06:15.475Z,254.40
2022-11-29T08:07:15.579Z,261.70
2022-11-29T08:08:15.454Z,244.80
2022-11-29T08:09:15.479Z,242.80
2022-11-29T08:10:15.449Z,236.20
2022-11-29T08:11:15.441Z,246.60
2022-11-29T08:12:15.426Z,256.50
2022-11-29T08:13:15.436Z,256.30
2022-11-29T08:14:15.394Z,244.40
2022-11-29T08:15:15.412Z,249.00
2022-11-29T08:16:15.438Z,253.60
2022-11-29T08:17:15.420Z,267.40
2022-11-29T08:18:15.355Z,248.30
2022-11-29T08:19:15.359Z,257.40
2022-11-29T08:20:15.371Z,234.30
2022-11-29T08:21:15.364Z,247.40
2022-11-29T08:22:15.367Z,272.80
2022-11-29T08:23:15.324Z,238.70
2022-11-29T08:24:15.300Z,255.30
2022-11-29T08:25:15.313Z,260.60
2022-11-29T08:26:15.324Z,266.20
2022-11-29T08:27:15.299Z,263.80
2022-11-29T08:28:15.263Z,279.00
2022-11-29T08:29:15.283Z,282.30
2022-11-29T08:30:15.223Z,282.10
2022-11-29T08:31:15.304Z,279.40
2022-11-29T08:32:15.208Z,278.10
2022-11-29T08:33:15.215Z,280.00
2022-11-29T08:34:15.201Z,278.10
2022-11-29T08:35:15.198Z,267.60
2022-11-29T08:36:15.193Z,282.60
2022-11-29T08:37:15.183Z,250.10
2022-11-29T08:38:15.182Z,258.90
2022-11-29T08:39:15.170Z,261.40
2022-11-29T08:40:15.146Z,274.60
2022-11-29T08:41:15.157Z,264.90
2022-11-29T08:42:15.112Z,252.20
2022-11-29T08:43:15.126Z,261.10
2022-11-29T08:44:15.099Z,269.40
2022-11-29T08:45:15.090Z,273.20
2022-11-29T08:46:18.608Z,259.00
2022-11-29T08:47:15.073Z,278.50
2022-11-29T08:48:15.029Z,252.70
2022-11-29T08:49:15.042Z,280.30
2022-11-29T08:50:15.030Z,274.70
2022-11-29T08:51:15.026Z,270.60
2022-11-29T08:52:14.999Z,245.30
2022-11-29T08:53:14.999Z,248.30
2022-11-29T08:54:14.962Z,234.60
2022-11-29T08:55:14.981Z,240.60
2022-11-29T08:57:04.314Z,248.60
2022-11-29T08:57:39.193Z,215.90
2022-11-29T08:58:14.941Z,227.70
2022-11-29T08:59:14.938Z,255.20
2022-11-29T09:00:14.911Z,235.50
2022-11-29T09:01:15.007Z,252.70
2022-11-29T09:02:14.932Z,233.40
2022-11-29T09:03:14.910Z,233.40
2022-11-29T09:04:14.870Z,249.10
2022-11-29T09:05:14.880Z,226.70
2022-11-29T09:06:14.842Z,238.70
2022-11-29T09:07:14.949Z,235.40
2022-11-29T09:08:14.821Z,236.90
2022-11-29T09:09:14.873Z,246.60
2022-11-29T09:10:14.802Z,223.10
2022-11-29T09:11:14.816Z,244.80
2022-11-29T09:12:14.782Z,242.80
2022-11-29T09:13:14.818Z,232.00
2022-11-29T09:14:14.769Z,243.30
2022-11-29T09:15:14.780Z,241.40
2022-11-29T09:16:14.816Z,245.00
2022-11-29T09:17:14.752Z,256.40
2022-11-29T09:18:14.736Z,256.60
2022-11-29T09:19:14.742Z,257.70
2022-11-29T09:20:14.708Z,251.80
2022-11-29T09:21:14.706Z,251.30
2022-11-29T09:22:14.669Z,260.50
2022-11-29T09:23:14.693Z,238.20
2022-11-29T09:24:14.679Z,237.40
2022-11-29T09:25:14.676Z,238.30
2022-11-29T09:26:14.659Z,243.80
2022-11-29T09:27:14.637Z,234.70
2022-11-29T09:28:14.615Z,223.00
2022-11-29T09:29:14.631Z,244.50
2022-11-29T09:30:18.013Z,252.70
2022-11-29T09:31:14.660Z,248.90
2022-11-29T09:32:14.570Z,226.00
2022-11-29T09:33:14.589Z,246.90
2022-11-29T09:34:14.543Z,225.60
2022-11-29T09:35:14.593Z,238.70
2022-11-29T09:36:14.538Z,223.90
2022-11-29T09:37:14.535Z,227.80
2022-11-29T09:38:14.498Z,227.20
2022-11-29T09:39:14.526Z,228.20
2022-11-29T09:40:14.498Z,224.10
2022-11-29T09:41:14.513Z,217.20
2022-11-29T09:42:14.456Z,214.10
2022-11-29T09:43:14.470Z,229.60
2022-11-29T09:44:14.440Z,201.40
2022-11-29T09:45:14.452Z,201.70
2022-11-29T09:46:14.485Z,209.20
2022-11-29T09:47:14.464Z,194.80
2022-11-29T09:48:14.397Z,198.80
2022-11-29T09:49:14.416Z,206.00
2022-11-29T09:50:14.381Z,206.50
2022-11-29T09:51:14.399Z,207.90
2022-11-29T09:52:14.387Z,208.70
2022-11-29T09:53:14.385Z,197.90
2022-11-29T09:54:14.330Z,209.70
2022-11-29T09:55:14.361Z,204.10
2022-11-29T09:56:14.318Z,223.20
2022-11-29T09:57:14.330Z,199.40
2022-11-29T09:58:14.343Z,213.50
2022-11-29T09:59:14.316Z,195.90
2022-11-29T10:00:14.279Z,193.20
2022-11-29T10:01:14.295Z,186.50
2022-11-29T10:02:19.687Z,213.70
2022-11-29T10:03:14.267Z,208.60
2022-11-29T10:04:14.238Z,217.10
2022-11-29T10:05:14.245Z,218.60
2022-11-29T10:06:14.199Z,216.20
2022-11-29T10:07:14.224Z,223.80
2022-11-29T10:08:14.187Z,219.50
2022-11-29T10:09:14.201Z,196.40
2022-11-29T10:10:14.173Z,183.50
2022-11-29T10:11:14.172Z,191.70
2022-11-29T10:12:14.148Z,195.60
2022-11-29T10:13:14.160Z,180.80
2022-11-29T10:14:14.144Z,188.00
2022-11-29T10:15:14.138Z,202.20
2022-11-29T10:16:14.193Z,188.10
2022-11-29T10:17:14.126Z,186.00
2022-11-29T10:18:14.077Z,191.50
2022-11-29T10:19:14.113Z,179.50
2022-11-29T10:20:14.062Z,185.00
2022-11-29T10:21:14.082Z,165.30
2022-11-29T10:22:14.046Z,172.50
2022-11-29T10:23:14.068Z,171.10
2022-11-29T10:24:14.017Z,183.90
2022-11-29T10:25:14.041Z,202.00
2022-11-29T10:26:14.004Z,174.10
2022-11-29T10:27:14.009Z,178.40
2022-11-29T10:28:13.983Z,154.10
2022-11-29T10:29:14.067Z,157.80
2022-11-29T10:30:13.982Z,143.90
2022-11-29T10:31:14.018Z,158.80
2022-11-29T10:32:13.933Z,157.40
2022-11-29T10:33:13.953Z,164.70
2022-11-29T10:34:13.906Z,155.90
2022-11-29T10:35:13.931Z,143.20
2022-11-29T10:36:13.935Z,144.50
2022-11-29T10:37:13.903Z,124.10
2022-11-29T10:38:30.211Z,108.90
2022-11-29T10:39:14.791Z,116.40
2022-11-29T10:40:13.862Z,120.60
2022-11-29T10:41:13.864Z,133.90
2022-11-29T10:42:13.861Z,130.40
2022-11-29T10:43:13.842Z,132.40
2022-11-29T10:44:13.812Z,127.00
2022-11-29T10:45:13.846Z,139.50
2022-11-29T10:46:13.843Z,148.10
2022-11-29T10:47:13.793Z,135.20
2022-11-29T10:48:13.776Z,141.70
2022-11-29T10:49:13.778Z,124.40
2022-11-29T10:50:13.750Z,129.50
2022-11-29T10:51:13.750Z,153.00
2022-11-29T10:52:13.713Z,136.60
2022-11-29T10:53:13.753Z,138.40
2022-11-29T10:54:13.705Z,126.20
2022-11-29T10:55:13.706Z,150.30
2022-11-29T10:56:13.681Z,137.20
2022-11-29T10:57:13.693Z,158.30
2022-11-29T10:58:13.685Z,142.70
2022-11-29T10:59:13.666Z,122.90
2022-11-29T11:00:13.638Z,136.30
2022-11-29T11:01:13.677Z,127.20
2022-11-29T11:02:13.607Z,129.10
2022-11-29T11:03:13.634Z,107.90
2022-11-29T11:04:13.598Z,113.30
2022-11-29T11:05:13.649Z,107.40
2022-11-29T11:06:13.588Z,109.10
2022-11-29T11:07:13.578Z,96.40
2022-11-29T11:08:13.570Z,98.50
2022-11-29T11:09:13.577Z,95.90
2022-11-29T11:10:13.540Z,97.40
2022-11-29T11:11:13.545Z,91.20
2022-11-29T11:12:13.502Z,94.50
2022-11-29T11:13:13.526Z,93.60
2022-11-29T11:14:13.494Z,81.50
2022-11-29T11:15:13.496Z,89.30
2022-11-29T11:16:13.527Z,88.60
2022-11-29T11:17:13.468Z,70.30
2022-11-29T11:18:13.485Z,81.50
2022-11-29T11:19:13.431Z,79.70
2022-11-29T11:20:13.450Z,88.80
2022-11-29T11:21:13.406Z,96.40
2022-11-29T11:22:13.420Z,89.60
2022-11-29T11:23:13.401Z,100.00
2022-11-29T11:24:13.401Z,82.10
2022-11-29T11:25:13.384Z,82.30
2022-11-29T11:26:13.384Z,74.80
2022-11-29T11:27:13.344Z,76.90
2022-11-29T11:28:13.382Z,81.60
2022-11-29T11:29:13.337Z,79.90
2022-11-29T11:30:13.342Z,82.40
2022-11-29T11:31:13.369Z,79.20
2022-11-29T11:32:13.311Z,80.60
2022-11-29T11:33:13.286Z,80.80
2022-11-29T11:34:13.306Z,71.90
2022-11-29T11:35:18.288Z,78.50
2022-11-29T11:36:13.277Z,70.20
2022-11-29T11:37:13.236Z,72.80
2022-11-29T11:38:13.258Z,90.90
2022-11-29T11:39:13.231Z,94.40
2022-11-29T11:40:13.382Z,82.30
2022-11-29T11:41:13.201Z,89.80
2022-11-29T11:42:13.209Z,108.80
2022-11-29T11:43:13.173Z,103.10
2022-11-29T11:44:15.345Z,79.10
2022-11-29T11:45:13.155Z,73.00
2022-11-29T11:46:17.877Z,82.70
2022-11-29T11:47:13.127Z,83.60
2022-11-29T11:48:13.142Z,86.00
2022-11-29T11:49:13.137Z,93.60
2022-11-29T11:50:13.125Z,102.40
2022-11-29T11:51:13.088Z,95.60
2022-11-29T11:52:13.100Z,85.20
2022-11-29T11:53:13.063Z,85.00
2022-11-29T11:54:13.100Z,73.10
2022-11-29T11:55:13.063Z,83.80
2022-11-29T11:56:13.061Z,95.00
2022-11-29T11:57:13.032Z,90.20
2022-11-29T11:58:13.051Z,88.80
2022-11-29T11:59:13.004Z,87.20
2022-11-29T12:00:13.055Z,78.20
2022-11-29T12:01:13.013Z,76.20
2022-11-29T12:02:13.017Z,90.40
2022-11-29T12:03:13.061Z,92.50
2022-11-29T12:04:12.991Z,98.60
2022-11-29T12:05:12.940Z,78.20
2022-11-29T12:06:12.954Z,81.60
2022-11-29T12:07:13.000Z,74.20
2022-11-29T12:08:13.048Z,80.90
2022-11-29T12:09:12.909Z,88.30
2022-11-29T12:10:12.950Z,78.40
2022-11-29T12:11:12.901Z,84.60
2022-11-29T12:12:12.930Z,106.90
2022-11-29T12:13:12.854Z,102.00
2022-11-29T12:14:12.873Z,86.30
2022-11-29T12:15:12.846Z,86.10
2022-11-29T12:16:12.905Z,90.70
2022-11-29T12:17:18.477Z,84.10
2022-11-29T12:18:12.852Z,91.50
2022-11-29T12:19:12.802Z,101.80
2022-11-29T12:20:12.905Z,121.80
2022-11-29T12:21:12.781Z,103.30
2022-11-29T12:22:12.789Z,111.80
2022-11-29T12:23:12.771Z,91.80
2022-11-29T12:24:12.768Z,90.90
2022-11-29T12:25:12.762Z,93.60
2022-11-29T12:26:19.199Z,83.50
2022-11-29T12:27:13.010Z,92.20
2022-11-29T12:28:15.836Z,102.50
2022-11-29T12:29:12.711Z,99.00
2022-11-29T12:30:12.705Z,97.00